sensor_id;sensor_type;location;lat;lon;timestamp;temperature;humidity
35603;DHT22;21725;50.836;4.368;2023-04-10T00:01:41;14.50;90.40
35603;DHT22;21725;50.836;4.368;2023-04-10T00:04:42;14.40;90.30
35603;DHT22;21725;50.836;4.368;2023-04-10T00:07:46;14.50;90.30
35603;DHT22;21725;50.836;4.368;2023-04-10T00:10:50;14.60;90.40
35603;DHT22;21725;50.836;4.368;2023-04-10T00:14:00;14.70;90.30
35603;DHT22;21725;50.836;4.368;2023-04-10T00:17:14;14.80;90.30
35603;DHT22;21725;50.836;4.368;2023-04-10T00:20:34;14.80;90.30
35603;DHT22;21725;50.836;4.368;2023-04-10T00:23:40;14.40;90.70
35603;DHT22;21725;50.836;4.368;2023-04-10T00:26:54;14.40;90.70
35603;DHT22;21725;50.836;4.368;2023-04-10T00:30:00;14.30;91.10
35603;DHT22;21725;50.836;4.368;2023-04-10T00:33:13;14.20;91.30
35603;DHT22;21725;50.836;4.368;2023-04-10T00:36:24;13.90;91.10
35603;DHT22;21725;50.836;4.368;2023-04-10T00:39:30;14.10;91.30
35603;DHT22;21725;50.836;4.368;2023-04-10T00:42:31;14.10;91.40
35603;DHT22;21725;50.836;4.368;2023-04-10T00:45:50;13.70;91.60
35603;DHT22;21725;50.836;4.368;2023-04-10T00:48:58;13.30;91.50
35603;DHT22;21725;50.836;4.368;2023-04-10T00:51:59;13.70;91.70
35603;DHT22;21725;50.836;4.368;2023-04-10T00:55:13;13.70;91.60
35603;DHT22;21725;50.836;4.368;2023-04-10T00:58:22;13.60;91.50
35603;DHT22;21725;50.836;4.368;2023-04-10T01:01:32;13.00;91.70
35603;DHT22;21725;50.836;4.368;2023-04-10T01:05:03;13.00;91.90
35603;DHT22;21725;50.836;4.368;2023-04-10T01:08:52;13.20;91.80
35603;DHT22;21725;50.836;4.368;2023-04-10T01:15:27;13.10;92.00
35603;DHT22;21725;50.836;4.368;2023-04-10T01:18:40;13.20;91.90
35603;DHT22;21725;50.836;4.368;2023-04-10T01:21:55;13.20;91.80
35603;DHT22;21725;50.836;4.368;2023-04-10T01:25:27;12.80;91.70
35603;DHT22;21725;50.836;4.368;2023-04-10T01:32:30;12.90;91.90
35603;DHT22;21725;50.836;4.368;2023-04-10T01:35:48;12.70;91.70
35603;DHT22;21725;50.836;4.368;2023-04-10T01:38:55;12.60;91.70
35603;DHT22;21725;50.836;4.368;2023-04-10T01:42:04;12.50;91.80
35603;DHT22;21725;50.836;4.368;2023-04-10T01:45:07;12.50;92.00
35603;DHT22;21725;50.836;4.368;2023-04-10T01:51:51;12.50;91.70
35603;DHT22;21725;50.836;4.368;2023-04-10T01:55:01;12.60;91.60
35603;DHT22;21725;50.836;4.368;2023-04-10T01:58:05;12.70;91.60
35603;DHT22;21725;50.836;4.368;2023-04-10T02:01:20;12.60;91.50
35603;DHT22;21725;50.836;4.368;2023-04-10T02:08:14;12.50;91.60
35603;DHT22;21725;50.836;4.368;2023-04-10T02:15:28;12.60;91.50
35603;DHT22;21725;50.836;4.368;2023-04-10T02:18:43;12.60;91.30
35603;DHT22;21725;50.836;4.368;2023-04-10T02:21:54;12.70;91.10
35603;DHT22;21725;50.836;4.368;2023-04-10T02:24:56;12.80;91.00
35603;DHT22;21725;50.836;4.368;2023-04-10T02:28:04;12.80;90.90
35603;DHT22;21725;50.836;4.368;2023-04-10T02:31:23;12.50;91.30
35603;DHT22;21725;50.836;4.368;2023-04-10T02:34:26;12.70;90.90
35603;DHT22;21725;50.836;4.368;2023-04-10T02:37:51;12.80;90.50
35603;DHT22;21725;50.836;4.368;2023-04-10T02:41:16;12.70;90.40
35603;DHT22;21725;50.836;4.368;2023-04-10T02:44:25;12.60;90.60
35603;DHT22;21725;50.836;4.368;2023-04-10T02:47:28;12.60;90.90
35603;DHT22;21725;50.836;4.368;2023-04-10T02:50:39;12.70;90.40
35603;DHT22;21725;50.836;4.368;2023-04-10T02:53:51;12.80;90.30
35603;DHT22;21725;50.836;4.368;2023-04-10T02:56:56;12.70;90.30
35603;DHT22;21725;50.836;4.368;2023-04-10T03:00:13;12.60;90.40
35603;DHT22;21725;50.836;4.368;2023-04-10T03:03:31;12.50;90.20
35603;DHT22;21725;50.836;4.368;2023-04-10T03:06:32;12.40;90.40
35603;DHT22;21725;50.836;4.368;2023-04-10T03:09:43;12.60;90.30
35603;DHT22;21725;50.836;4.368;2023-04-10T03:12:59;12.50;90.20
35603;DHT22;21725;50.836;4.368;2023-04-10T03:16:03;12.70;90.00
35603;DHT22;21725;50.836;4.368;2023-04-10T03:19:09;12.70;89.70
35603;DHT22;21725;50.836;4.368;2023-04-10T03:22:15;12.60;90.20
35603;DHT22;21725;50.836;4.368;2023-04-10T03:25:18;12.60;90.00
35603;DHT22;21725;50.836;4.368;2023-04-10T03:28:31;12.90;90.20
35603;DHT22;21725;50.836;4.368;2023-04-10T03:31:54;12.60;90.20
35603;DHT22;21725;50.836;4.368;2023-04-10T03:35:03;12.80;89.80
35603;DHT22;21725;50.836;4.368;2023-04-10T03:38:06;12.70;90.00
35603;DHT22;21725;50.836;4.368;2023-04-10T03:41:22;12.80;89.90
35603;DHT22;21725;50.836;4.368;2023-04-10T03:44:31;12.90;90.00
35603;DHT22;21725;50.836;4.368;2023-04-10T03:47:41;12.40;90.00
35603;DHT22;21725;50.836;4.368;2023-04-10T03:50:45;12.50;90.20
35603;DHT22;21725;50.836;4.368;2023-04-10T03:53:50;12.40;90.40
35603;DHT22;21725;50.836;4.368;2023-04-10T03:56:54;12.20;90.60
35603;DHT22;21725;50.836;4.368;2023-04-10T04:00:18;12.30;90.60
35603;DHT22;21725;50.836;4.368;2023-04-10T04:03:39;12.40;90.40
35603;DHT22;21725;50.836;4.368;2023-04-10T04:07:03;12.50;90.30
35603;DHT22;21725;50.836;4.368;2023-04-10T04:42:39;10.50;92.80
35603;DHT22;21725;50.836;4.368;2023-04-10T04:45:54;12.40;91.10
35603;DHT22;21725;50.836;4.368;2023-04-10T04:49:06;12.30;90.50
35603;DHT22;21725;50.836;4.368;2023-04-10T04:52:09;12.60;90.20
35603;DHT22;21725;50.836;4.368;2023-04-10T04:55:19;12.70;90.20
35603;DHT22;21725;50.836;4.368;2023-04-10T04:58:32;12.70;89.60
35603;DHT22;21725;50.836;4.368;2023-04-10T05:01:40;12.70;89.60
35603;DHT22;21725;50.836;4.368;2023-04-10T05:04:43;12.70;89.50
35603;DHT22;21725;50.836;4.368;2023-04-10T05:07:44;12.60;89.80
35603;DHT22;21725;50.836;4.368;2023-04-10T05:10:50;12.50;90.20
35603;DHT22;21725;50.836;4.368;2023-04-10T05:14:04;12.50;90.00
35603;DHT22;21725;50.836;4.368;2023-04-10T05:17:15;12.50;90.10
35603;DHT22;21725;50.836;4.368;2023-04-10T05:20:19;12.80;89.70
35603;DHT22;21725;50.836;4.368;2023-04-10T05:23:44;12.70;89.50
35603;DHT22;21725;50.836;4.368;2023-04-10T05:27:05;12.60;90.00
35603;DHT22;21725;50.836;4.368;2023-04-10T05:30:31;12.40;90.20
35603;DHT22;21725;50.836;4.368;2023-04-10T05:33:36;12.50;90.10
35603;DHT22;21725;50.836;4.368;2023-04-10T05:37:00;12.70;89.90
35603;DHT22;21725;50.836;4.368;2023-04-10T05:40:21;12.80;90.00
35603;DHT22;21725;50.836;4.368;2023-04-10T05:43:49;12.90;89.50
35603;DHT22;21725;50.836;4.368;2023-04-10T05:46:54;12.90;89.00
35603;DHT22;21725;50.836;4.368;2023-04-10T05:50:05;13.00;88.90
35603;DHT22;21725;50.836;4.368;2023-04-10T05:53:17;13.20;88.30
35603;DHT22;21725;50.836;4.368;2023-04-10T05:56:43;13.30;88.00
35603;DHT22;21725;50.836;4.368;2023-04-10T05:59:44;13.40;87.40
35603;DHT22;21725;50.836;4.368;2023-04-10T06:02:53;13.20;87.80
35603;DHT22;21725;50.836;4.368;2023-04-10T06:06:06;13.10;88.20
35603;DHT22;21725;50.836;4.368;2023-04-10T06:09:29;13.10;88.20
35603;DHT22;21725;50.836;4.368;2023-04-10T06:12:32;13.00;88.30
35603;DHT22;21725;50.836;4.368;2023-04-10T06:15:58;12.90;88.90
35603;DHT22;21725;50.836;4.368;2023-04-10T06:19:19;12.70;89.00
35603;DHT22;21725;50.836;4.368;2023-04-10T06:22:22;12.70;89.10
35603;DHT22;21725;50.836;4.368;2023-04-10T06:25:25;12.70;89.00
35603;DHT22;21725;50.836;4.368;2023-04-10T06:28:28;12.70;89.20
35603;DHT22;21725;50.836;4.368;2023-04-10T06:31:34;12.80;89.00
35603;DHT22;21725;50.836;4.368;2023-04-10T06:34:37;12.80;88.70
35603;DHT22;21725;50.836;4.368;2023-04-10T06:37:44;12.70;89.40
35603;DHT22;21725;50.836;4.368;2023-04-10T06:41:03;12.60;89.50
35603;DHT22;21725;50.836;4.368;2023-04-10T06:44:26;12.40;89.90
35603;DHT22;21725;50.836;4.368;2023-04-10T06:47:32;12.70;89.90
35603;DHT22;21725;50.836;4.368;2023-04-10T06:50:38;12.60;89.80
35603;DHT22;21725;50.836;4.368;2023-04-10T06:53:59;12.60;90.00
35603;DHT22;21725;50.836;4.368;2023-04-10T06:57:03;12.70;89.60
35603;DHT22;21725;50.836;4.368;2023-04-10T07:00:07;12.50;90.00
35603;DHT22;21725;50.836;4.368;2023-04-10T07:03:14;12.70;90.10
35603;DHT22;21725;50.836;4.368;2023-04-10T07:06:24;12.70;90.00
35603;DHT22;21725;50.836;4.368;2023-04-10T07:09:28;12.70;90.10
35603;DHT22;21725;50.836;4.368;2023-04-10T07:12:30;13.30;90.00
35603;DHT22;21725;50.836;4.368;2023-04-10T07:15:33;12.90;90.00
35603;DHT22;21725;50.836;4.368;2023-04-10T07:18:41;12.80;89.60
35603;DHT22;21725;50.836;4.368;2023-04-10T07:21:49;13.40;89.20
35603;DHT22;21725;50.836;4.368;2023-04-10T07:24:50;13.40;88.90
35603;DHT22;21725;50.836;4.368;2023-04-10T07:28:01;13.60;89.00
35603;DHT22;21725;50.836;4.368;2023-04-10T07:31:07;13.50;89.10
35603;DHT22;21725;50.836;4.368;2023-04-10T07:34:18;13.70;88.60
35603;DHT22;21725;50.836;4.368;2023-04-10T07:37:49;13.70;88.70
35603;DHT22;21725;50.836;4.368;2023-04-10T07:41:05;13.60;89.10
35603;DHT22;21725;50.836;4.368;2023-04-10T07:44:14;13.50;89.50
35603;DHT22;21725;50.836;4.368;2023-04-10T07:47:19;13.60;89.40
35603;DHT22;21725;50.836;4.368;2023-04-10T07:50:23;13.00;90.00
35603;DHT22;21725;50.836;4.368;2023-04-10T07:53:29;13.10;90.60
35603;DHT22;21725;50.836;4.368;2023-04-10T07:56:32;13.40;90.40
35603;DHT22;21725;50.836;4.368;2023-04-10T07:59:40;13.50;90.20
35603;DHT22;21725;50.836;4.368;2023-04-10T08:02:41;13.50;90.20
35603;DHT22;21725;50.836;4.368;2023-04-10T08:05:42;13.50;90.30
35603;DHT22;21725;50.836;4.368;2023-04-10T08:08:46;13.70;90.20
35603;DHT22;21725;50.836;4.368;2023-04-10T08:11:55;13.70;90.30
35603;DHT22;21725;50.836;4.368;2023-04-10T08:15:20;13.60;90.50
35603;DHT22;21725;50.836;4.368;2023-04-10T08:18:24;13.70;90.30
35603;DHT22;21725;50.836;4.368;2023-04-10T08:21:44;14.10;90.20
35603;DHT22;21725;50.836;4.368;2023-04-10T08:24:53;14.20;90.00
35603;DHT22;21725;50.836;4.368;2023-04-10T08:28:06;14.00;90.30
35603;DHT22;21725;50.836;4.368;2023-04-10T08:31:07;13.90;90.70
35603;DHT22;21725;50.836;4.368;2023-04-10T08:34:13;13.90;90.70
35603;DHT22;21725;50.836;4.368;2023-04-10T08:37:27;14.00;90.70
35603;DHT22;21725;50.836;4.368;2023-04-10T08:40:38;14.00;90.80
35603;DHT22;21725;50.836;4.368;2023-04-10T08:44:06;13.70;90.50
35603;DHT22;21725;50.836;4.368;2023-04-10T08:47:19;14.60;90.30
35603;DHT22;21725;50.836;4.368;2023-04-10T08:50:38;14.60;90.30
35603;DHT22;21725;50.836;4.368;2023-04-10T08:54:07;14.80;90.20
35603;DHT22;21725;50.836;4.368;2023-04-10T08:57:24;14.70;90.10
35603;DHT22;21725;50.836;4.368;2023-04-10T09:00:32;14.70;90.40
35603;DHT22;21725;50.836;4.368;2023-04-10T09:03:36;14.70;90.50
35603;DHT22;21725;50.836;4.368;2023-04-10T09:06:47;14.70;90.30
35603;DHT22;21725;50.836;4.368;2023-04-10T09:09:55;14.90;90.40
35603;DHT22;21725;50.836;4.368;2023-04-10T09:12:59;14.90;90.40
35603;DHT22;21725;50.836;4.368;2023-04-10T09:16:05;15.00;90.60
35603;DHT22;21725;50.836;4.368;2023-04-10T09:19:08;14.90;90.60
35603;DHT22;21725;50.836;4.368;2023-04-10T09:22:17;14.90;90.70
35603;DHT22;21725;50.836;4.368;2023-04-10T09:25:38;15.10;90.50
35603;DHT22;21725;50.836;4.368;2023-04-10T09:28:57;15.10;90.50
35603;DHT22;21725;50.836;4.368;2023-04-10T09:32:03;15.20;90.50
35603;DHT22;21725;50.836;4.368;2023-04-10T09:35:05;15.60;90.70
35603;DHT22;21725;50.836;4.368;2023-04-10T09:38:33;15.50;90.50
35603;DHT22;21725;50.836;4.368;2023-04-10T09:41:46;15.90;90.10
35603;DHT22;21725;50.836;4.368;2023-04-10T09:44:54;16.20;89.70
35603;DHT22;21725;50.836;4.368;2023-04-10T09:48:07;16.20;89.50
35603;DHT22;21725;50.836;4.368;2023-04-10T09:51:27;16.40;89.80
35603;DHT22;21725;50.836;4.368;2023-04-10T09:54:42;16.40;89.50
35603;DHT22;21725;50.836;4.368;2023-04-10T09:57:45;16.80;88.40
35603;DHT22;21725;50.836;4.368;2023-04-10T10:00:47;17.20;87.90
35603;DHT22;21725;50.836;4.368;2023-04-10T10:03:53;16.90;87.40
35603;DHT22;21725;50.836;4.368;2023-04-10T10:06:57;17.10;87.70
35603;DHT22;21725;50.836;4.368;2023-04-10T10:41:16;16.40;90.10
35603;DHT22;21725;50.836;4.368;2023-04-10T10:44:45;18.90;85.40
35603;DHT22;21725;50.836;4.368;2023-04-10T10:47:52;19.10;84.50
35603;DHT22;21725;50.836;4.368;2023-04-10T10:50:56;18.70;85.10
35603;DHT22;21725;50.836;4.368;2023-04-10T10:54:27;19.20;84.20
35603;DHT22;21725;50.836;4.368;2023-04-10T10:58:09;19.50;83.60
35603;DHT22;21725;50.836;4.368;2023-04-10T11:01:18;19.10;83.70
35603;DHT22;21725;50.836;4.368;2023-04-10T11:04:43;18.70;84.40
35603;DHT22;21725;50.836;4.368;2023-04-10T11:14:15;18.40;84.70
35603;DHT22;21725;50.836;4.368;2023-04-10T11:17:52;18.20;85.80
35603;DHT22;21725;50.836;4.368;2023-04-10T11:21:08;18.10;85.80
35603;DHT22;21725;50.836;4.368;2023-04-10T11:24:22;19.00;84.10
35603;DHT22;21725;50.836;4.368;2023-04-10T11:27:42;18.80;83.70
35603;DHT22;21725;50.836;4.368;2023-04-10T11:30:47;19.00;83.30
35603;DHT22;21725;50.836;4.368;2023-04-10T11:34:12;19.10;82.80
35603;DHT22;21725;50.836;4.368;2023-04-10T11:37:22;19.00;83.00
35603;DHT22;21725;50.836;4.368;2023-04-10T11:40:28;19.00;83.50
35603;DHT22;21725;50.836;4.368;2023-04-10T11:43:32;19.10;82.80
35603;DHT22;21725;50.836;4.368;2023-04-10T11:46:37;19.10;83.50
35603;DHT22;21725;50.836;4.368;2023-04-10T11:49:54;19.30;83.30
35603;DHT22;21725;50.836;4.368;2023-04-10T11:52:57;19.70;82.50
35603;DHT22;21725;50.836;4.368;2023-04-10T11:56:00;19.40;83.00
35603;DHT22;21725;50.836;4.368;2023-04-10T11:59:06;18.70;84.10
35603;DHT22;21725;50.836;4.368;2023-04-10T12:02:19;18.70;84.90
35603;DHT22;21725;50.836;4.368;2023-04-10T12:05:25;18.40;85.40
35603;DHT22;21725;50.836;4.368;2023-04-10T12:08:45;18.50;85.20
35603;DHT22;21725;50.836;4.368;2023-04-10T12:11:54;18.60;85.40
35603;DHT22;21725;50.836;4.368;2023-04-10T12:15:03;18.60;85.50
35603;DHT22;21725;50.836;4.368;2023-04-10T12:18:26;18.40;85.10
35603;DHT22;21725;50.836;4.368;2023-04-10T12:21:35;18.60;85.40
35603;DHT22;21725;50.836;4.368;2023-04-10T12:24:49;18.80;84.90
35603;DHT22;21725;50.836;4.368;2023-04-10T12:27:55;18.90;84.20
35603;DHT22;21725;50.836;4.368;2023-04-10T12:30:58;19.30;82.90
35603;DHT22;21725;50.836;4.368;2023-04-10T12:34:10;19.60;81.30
35603;DHT22;21725;50.836;4.368;2023-04-10T12:37:20;19.60;81.30
35603;DHT22;21725;50.836;4.368;2023-04-10T12:40:33;19.20;81.50
35603;DHT22;21725;50.836;4.368;2023-04-10T12:43:41;19.00;82.60
35603;DHT22;21725;50.836;4.368;2023-04-10T12:46:59;19.00;83.20
35603;DHT22;21725;50.836;4.368;2023-04-10T12:50:07;18.90;84.20
35603;DHT22;21725;50.836;4.368;2023-04-10T12:53:15;19.00;85.60
35603;DHT22;21725;50.836;4.368;2023-04-10T12:56:21;19.00;86.80
35603;DHT22;21725;50.836;4.368;2023-04-10T12:59:49;18.90;88.30
35603;DHT22;21725;50.836;4.368;2023-04-10T13:02:58;19.00;90.10
35603;DHT22;21725;50.836;4.368;2023-04-10T13:06:03;18.60;89.70
35603;DHT22;21725;50.836;4.368;2023-04-10T13:09:07;18.30;90.50
35603;DHT22;21725;50.836;4.368;2023-04-10T13:12:16;18.40;90.40
35603;DHT22;21725;50.836;4.368;2023-04-10T13:15:52;18.30;90.60
35603;DHT22;21725;50.836;4.368;2023-04-10T13:22:24;18.30;90.70
35603;DHT22;21725;50.836;4.368;2023-04-10T13:25:38;18.50;90.50
35603;DHT22;21725;50.836;4.368;2023-04-10T13:28:41;18.30;90.40
35603;DHT22;21725;50.836;4.368;2023-04-10T13:31:45;18.00;91.10
35603;DHT22;21725;50.836;4.368;2023-04-10T13:34:54;18.40;90.70
35603;DHT22;21725;50.836;4.368;2023-04-10T13:38:14;18.30;90.70
35603;DHT22;21725;50.836;4.368;2023-04-10T13:41:17;17.90;90.70
35603;DHT22;21725;50.836;4.368;2023-04-10T13:44:33;18.10;90.70
35603;DHT22;21725;50.836;4.368;2023-04-10T13:47:56;18.10;90.80
35603;DHT22;21725;50.836;4.368;2023-04-10T13:50:57;18.20;90.30
35603;DHT22;21725;50.836;4.368;2023-04-10T13:54:05;18.40;89.70
35603;DHT22;21725;50.836;4.368;2023-04-10T14:00:44;18.20;90.10
35603;DHT22;21725;50.836;4.368;2023-04-10T14:03:52;18.20;89.70
35603;DHT22;21725;50.836;4.368;2023-04-10T14:07:03;18.30;89.70
35603;DHT22;21725;50.836;4.368;2023-04-10T14:10:08;18.70;88.50
35603;DHT22;21725;50.836;4.368;2023-04-10T14:13:24;18.60;88.90
35603;DHT22;21725;50.836;4.368;2023-04-10T14:16:27;18.70;89.30
35603;DHT22;21725;50.836;4.368;2023-04-10T14:19:36;19.00;88.70
35603;DHT22;21725;50.836;4.368;2023-04-10T14:22:45;18.50;88.50
35603;DHT22;21725;50.836;4.368;2023-04-10T14:25:50;19.00;88.30
35603;DHT22;21725;50.836;4.368;2023-04-10T14:29:01;18.70;88.60
35603;DHT22;21725;50.836;4.368;2023-04-10T14:32:22;18.70;88.10
35603;DHT22;21725;50.836;4.368;2023-04-10T14:35:23;18.50;89.90
35603;DHT22;21725;50.836;4.368;2023-04-10T14:38:31;18.70;90.10
35603;DHT22;21725;50.836;4.368;2023-04-10T14:41:39;18.60;90.30
35603;DHT22;21725;50.836;4.368;2023-04-10T14:45:02;18.10;91.40
35603;DHT22;21725;50.836;4.368;2023-04-10T14:48:13;18.30;91.60
35603;DHT22;21725;50.836;4.368;2023-04-10T14:51:16;17.80;92.50
35603;DHT22;21725;50.836;4.368;2023-04-10T14:54:19;17.50;93.60
35603;DHT22;21725;50.836;4.368;2023-04-10T14:57:26;17.40;93.90
35603;DHT22;21725;50.836;4.368;2023-04-10T15:00:35;17.20;94.30
35603;DHT22;21725;50.836;4.368;2023-04-10T15:03:47;17.00;94.80
35603;DHT22;21725;50.836;4.368;2023-04-10T15:06:48;17.00;95.30
35603;DHT22;21725;50.836;4.368;2023-04-10T15:10:00;17.00;95.90
35603;DHT22;21725;50.836;4.368;2023-04-10T15:13:00;17.20;95.60
35603;DHT22;21725;50.836;4.368;2023-04-10T15:16:13;16.60;95.30
35603;DHT22;21725;50.836;4.368;2023-04-10T15:19:20;16.80;96.30
35603;DHT22;21725;50.836;4.368;2023-04-10T15:22:26;16.60;96.00
35603;DHT22;21725;50.836;4.368;2023-04-10T15:25:43;17.10;96.00
35603;DHT22;21725;50.836;4.368;2023-04-10T15:28:54;17.00;96.30
35603;DHT22;21725;50.836;4.368;2023-04-10T15:31:58;16.80;96.60
35603;DHT22;21725;50.836;4.368;2023-04-10T15:35:09;17.00;97.00
35603;DHT22;21725;50.836;4.368;2023-04-10T15:38:21;16.50;97.80
35603;DHT22;21725;50.836;4.368;2023-04-10T15:41:39;16.70;98.60
35603;DHT22;21725;50.836;4.368;2023-04-10T15:44:45;15.80;99.90
35603;DHT22;21725;50.836;4.368;2023-04-10T15:47:49;15.60;99.90
35603;DHT22;21725;50.836;4.368;2023-04-10T15:51:06;15.60;99.90
35603;DHT22;21725;50.836;4.368;2023-04-10T15:54:31;15.60;99.90
35603;DHT22;21725;50.836;4.368;2023-04-10T15:57:49;15.20;99.90
35603;DHT22;21725;50.836;4.368;2023-04-10T16:00:49;15.20;99.90
35603;DHT22;21725;50.836;4.368;2023-04-10T16:48:48;12.30;99.90
35603;DHT22;21725;50.836;4.368;2023-04-10T16:51:59;15.20;99.90
35603;DHT22;21725;50.836;4.368;2023-04-10T16:55:05;15.30;99.90
35603;DHT22;21725;50.836;4.368;2023-04-10T16:58:27;15.10;99.90
35603;DHT22;21725;50.836;4.368;2023-04-10T17:01:28;15.50;99.90
35603;DHT22;21725;50.836;4.368;2023-04-10T17:04:29;15.60;99.90
35603;DHT22;21725;50.836;4.368;2023-04-10T17:07:39;15.40;99.90
35603;DHT22;21725;50.836;4.368;2023-04-10T17:10:42;15.10;99.90
35603;DHT22;21725;50.836;4.368;2023-04-10T17:14:05;14.90;99.90
35603;DHT22;21725;50.836;4.368;2023-04-10T17:17:19;15.20;99.90
35603;DHT22;21725;50.836;4.368;2023-04-10T17:20:20;15.10;99.90
35603;DHT22;21725;50.836;4.368;2023-04-10T17:23:25;14.70;99.90
35603;DHT22;21725;50.836;4.368;2023-04-10T17:26:27;14.90;99.90
35603;DHT22;21725;50.836;4.368;2023-04-10T17:29:36;14.40;99.90
35603;DHT22;21725;50.836;4.368;2023-04-10T17:32:38;14.30;99.90
35603;DHT22;21725;50.836;4.368;2023-04-10T17:35:50;14.40;99.90
35603;DHT22;21725;50.836;4.368;2023-04-10T17:39:03;14.20;99.90
35603;DHT22;21725;50.836;4.368;2023-04-10T17:42:12;14.30;99.90
35603;DHT22;21725;50.836;4.368;2023-04-10T17:45:18;14.40;99.90
35603;DHT22;21725;50.836;4.368;2023-04-10T17:48:22;14.30;99.90
35603;DHT22;21725;50.836;4.368;2023-04-10T17:51:36;14.30;99.90
35603;DHT22;21725;50.836;4.368;2023-04-10T17:55:02;14.30;99.90
35603;DHT22;21725;50.836;4.368;2023-04-10T17:58:05;14.10;99.90
35603;DHT22;21725;50.836;4.368;2023-04-10T18:01:23;13.60;99.90
35603;DHT22;21725;50.836;4.368;2023-04-10T18:04:26;13.80;99.90
35603;DHT22;21725;50.836;4.368;2023-04-10T18:07:39;13.50;99.90
35603;DHT22;21725;50.836;4.368;2023-04-10T18:10:40;13.50;99.90
35603;DHT22;21725;50.836;4.368;2023-04-10T18:13:48;13.70;99.90
35603;DHT22;21725;50.836;4.368;2023-04-10T18:16:54;13.80;99.90
35603;DHT22;21725;50.836;4.368;2023-04-10T18:20:05;14.20;99.90
35603;DHT22;21725;50.836;4.368;2023-04-10T18:23:06;14.20;99.90
35603;DHT22;21725;50.836;4.368;2023-04-10T18:26:07;13.80;99.90
35603;DHT22;21725;50.836;4.368;2023-04-10T18:29:16;13.80;99.90
35603;DHT22;21725;50.836;4.368;2023-04-10T18:32:46;14.20;99.90
35603;DHT22;21725;50.836;4.368;2023-04-10T18:35:52;14.20;99.90
35603;DHT22;21725;50.836;4.368;2023-04-10T18:39:02;14.40;99.90
35603;DHT22;21725;50.836;4.368;2023-04-10T18:42:15;14.50;99.90
35603;DHT22;21725;50.836;4.368;2023-04-10T18:45:36;14.30;99.90
35603;DHT22;21725;50.836;4.368;2023-04-10T18:48:44;14.10;99.90
35603;DHT22;21725;50.836;4.368;2023-04-10T18:51:57;14.00;99.90
35603;DHT22;21725;50.836;4.368;2023-04-10T18:54:58;14.20;99.90
35603;DHT22;21725;50.836;4.368;2023-04-10T18:57:58;14.10;99.90
35603;DHT22;21725;50.836;4.368;2023-04-10T19:04:32;14.00;99.90
35603;DHT22;21725;50.836;4.368;2023-04-10T19:07:43;14.00;99.90
35603;DHT22;21725;50.836;4.368;2023-04-10T19:10:56;14.00;99.90
35603;DHT22;21725;50.836;4.368;2023-04-10T19:14:15;13.90;99.90
35603;DHT22;21725;50.836;4.368;2023-04-10T19:17:20;13.90;99.90
35603;DHT22;21725;50.836;4.368;2023-04-10T19:20:24;14.10;99.90
35603;DHT22;21725;50.836;4.368;2023-04-10T19:23:27;14.30;99.90
35603;DHT22;21725;50.836;4.368;2023-04-10T19:26:34;14.30;99.90
35603;DHT22;21725;50.836;4.368;2023-04-10T19:29:42;14.60;99.90
35603;DHT22;21725;50.836;4.368;2023-04-10T19:33:03;14.40;99.90
35603;DHT22;21725;50.836;4.368;2023-04-10T19:36:14;14.20;99.90
35603;DHT22;21725;50.836;4.368;2023-04-10T19:39:30;14.40;99.90
35603;DHT22;21725;50.836;4.368;2023-04-10T19:42:37;14.00;99.90
35603;DHT22;21725;50.836;4.368;2023-04-10T19:45:38;13.80;99.90
35603;DHT22;21725;50.836;4.368;2023-04-10T19:48:54;14.00;99.90
35603;DHT22;21725;50.836;4.368;2023-04-10T19:52:18;14.10;99.90
35603;DHT22;21725;50.836;4.368;2023-04-10T19:55:32;13.80;99.90
35603;DHT22;21725;50.836;4.368;2023-04-10T19:58:49;14.10;99.90
35603;DHT22;21725;50.836;4.368;2023-04-10T20:02:09;14.20;99.90
35603;DHT22;21725;50.836;4.368;2023-04-10T20:05:14;14.10;99.90
35603;DHT22;21725;50.836;4.368;2023-04-10T20:08:18;13.80;99.90
35603;DHT22;21725;50.836;4.368;2023-04-10T20:11:24;13.80;99.90
35603;DHT22;21725;50.836;4.368;2023-04-10T20:14:29;13.80;99.90
35603;DHT22;21725;50.836;4.368;2023-04-10T20:17:56;13.80;99.90
35603;DHT22;21725;50.836;4.368;2023-04-10T20:21:20;13.60;99.90
35603;DHT22;21725;50.836;4.368;2023-04-10T20:24:23;13.30;99.90
35603;DHT22;21725;50.836;4.368;2023-04-10T20:27:32;14.00;99.90
35603;DHT22;21725;50.836;4.368;2023-04-10T20:31:00;13.40;99.90
35603;DHT22;21725;50.836;4.368;2023-04-10T20:37:36;13.70;99.90
35603;DHT22;21725;50.836;4.368;2023-04-10T20:40:42;13.70;99.90
35603;DHT22;21725;50.836;4.368;2023-04-10T20:47:27;13.40;99.90
35603;DHT22;21725;50.836;4.368;2023-04-10T20:50:40;13.50;99.90
35603;DHT22;21725;50.836;4.368;2023-04-10T20:54:18;13.40;99.90
35603;DHT22;21725;50.836;4.368;2023-04-10T20:57:40;13.60;99.90
35603;DHT22;21725;50.836;4.368;2023-04-10T21:01:03;13.70;99.90
35603;DHT22;21725;50.836;4.368;2023-04-10T21:04:09;13.60;99.90
35603;DHT22;21725;50.836;4.368;2023-04-10T21:11:15;13.10;99.90
35603;DHT22;21725;50.836;4.368;2023-04-10T21:14:34;13.10;99.90
35603;DHT22;21725;50.836;4.368;2023-04-10T21:17:37;12.80;99.90
35603;DHT22;21725;50.836;4.368;2023-04-10T21:20:41;13.10;99.90
35603;DHT22;21725;50.836;4.368;2023-04-10T21:23:49;13.10;99.90
35603;DHT22;21725;50.836;4.368;2023-04-10T21:27:03;13.20;99.90
35603;DHT22;21725;50.836;4.368;2023-04-10T21:30:13;13.30;99.90
35603;DHT22;21725;50.836;4.368;2023-04-10T21:33:29;13.30;99.90
35603;DHT22;21725;50.836;4.368;2023-04-10T21:36:43;13.10;99.90
35603;DHT22;21725;50.836;4.368;2023-04-10T21:39:46;13.00;99.90
35603;DHT22;21725;50.836;4.368;2023-04-10T21:42:53;13.20;99.90
35603;DHT22;21725;50.836;4.368;2023-04-10T21:45:59;13.10;99.90
35603;DHT22;21725;50.836;4.368;2023-04-10T21:49:04;12.90;99.90
35603;DHT22;21725;50.836;4.368;2023-04-10T21:52:07;13.20;99.90
35603;DHT22;21725;50.836;4.368;2023-04-10T21:55:13;13.10;99.90
35603;DHT22;21725;50.836;4.368;2023-04-10T21:58:27;13.20;99.90
35603;DHT22;21725;50.836;4.368;2023-04-10T22:01:38;13.30;99.90
35603;DHT22;21725;50.836;4.368;2023-04-10T22:04:57;13.10;99.90
35603;DHT22;21725;50.836;4.368;2023-04-10T22:08:03;13.10;99.90
35603;DHT22;21725;50.836;4.368;2023-04-10T22:35:00;10.40;99.90
35603;DHT22;21725;50.836;4.368;2023-04-10T22:38:01;11.10;99.90
35603;DHT22;21725;50.836;4.368;2023-04-10T22:41:09;11.70;99.90
35603;DHT22;21725;50.836;4.368;2023-04-10T22:44:16;12.00;99.90
35603;DHT22;21725;50.836;4.368;2023-04-10T22:55:48;12.40;99.90
35603;DHT22;21725;50.836;4.368;2023-04-10T22:59:25;12.50;99.90
35603;DHT22;21725;50.836;4.368;2023-04-10T23:28:17;11.70;99.90
35603;DHT22;21725;50.836;4.368;2023-04-10T23:31:28;12.30;99.90
35603;DHT22;21725;50.836;4.368;2023-04-10T23:38:38;12.50;99.90
35603;DHT22;21725;50.836;4.368;2023-04-10T23:41:57;12.60;99.90